createdAt,value
2022-10-05T00:00:30.850Z,7.83
2022-10-05T00:02:59.315Z,7.79
2022-10-05T00:05:32.127Z,7.79
2022-10-05T00:08:06.899Z,7.76
2022-10-05T00:10:36.102Z,7.76
2022-10-05T00:13:07.127Z,7.67
2022-10-05T00:15:37.019Z,7.63
2022-10-05T00:18:13.931Z,7.53
2022-10-05T00:20:42.683Z,7.45
2022-10-05T00:23:17.315Z,7.37
2022-10-05T00:25:46.915Z,7.34
2022-10-05T00:28:19.324Z,7.29
2022-10-05T00:30:47.265Z,7.26
2022-10-05T00:33:14.929Z,7.27
2022-10-05T00:35:42.646Z,7.18
2022-10-05T00:38:10.488Z,7.20
2022-10-05T00:40:47.188Z,7.17
2022-10-05T00:43:36.086Z,7.11
2022-10-05T00:46:09.449Z,7.01
2022-10-05T00:48:47.463Z,6.97
2022-10-05T00:51:25.127Z,6.93
2022-10-05T00:54:07.668Z,6.94
2022-10-05T00:56:50.480Z,6.91
2022-10-05T00:59:32.771Z,6.90
2022-10-05T01:02:06.747Z,6.88
2022-10-05T01:04:42.004Z,6.82
2022-10-05T01:07:18.974Z,6.80
2022-10-05T01:09:55.571Z,6.81
2022-10-05T01:12:30.646Z,6.86
2022-10-05T01:15:06.820Z,6.89
2022-10-05T01:17:41.734Z,6.91
2022-10-05T01:20:24.721Z,6.96
2022-10-05T01:23:19.767Z,6.97
2022-10-05T01:25:58.279Z,7.00
2022-10-05T01:28:31.628Z,6.99
2022-10-05T01:31:04.879Z,7.00
2022-10-05T01:33:39.961Z,7.01
2022-10-05T01:36:15.659Z,7.02
2022-10-05T01:38:50.581Z,7.02
2022-10-05T01:41:30.347Z,7.04
2022-10-05T01:44:04.256Z,7.00
2022-10-05T01:46:39.231Z,7.00
2022-10-05T01:49:18.655Z,7.02
2022-10-05T01:52:00.535Z,7.02
2022-10-05T01:54:38.991Z,7.00
2022-10-05T01:57:15.431Z,7.01
2022-10-05T01:59:58.955Z,7.01
2022-10-05T02:02:27.499Z,7.00
2022-10-05T02:05:05.260Z,7.00
2022-10-05T02:07:38.506Z,6.99
2022-10-05T02:10:15.578Z,6.91
2022-10-05T02:12:45.307Z,6.89
2022-10-05T02:15:18.257Z,6.87
2022-10-05T02:17:49.489Z,6.82
2022-10-05T02:20:23.515Z,6.81
2022-10-05T02:22:54.572Z,6.78
2022-10-05T02:25:25.849Z,6.79
2022-10-05T02:27:57.783Z,6.75
2022-10-05T02:30:28.783Z,6.64
2022-10-05T02:33:01.260Z,6.61
2022-10-05T02:35:29.349Z,6.58
2022-10-05T02:38:07.956Z,6.58
2022-10-05T02:40:45.221Z,6.61
2022-10-05T02:43:23.275Z,6.58
2022-10-05T02:46:00.417Z,6.59
2022-10-05T02:48:38.525Z,6.57
2022-10-05T02:51:16.539Z,6.57
2022-10-05T02:53:58.561Z,6.59
2022-10-05T02:56:34.187Z,6.57
2022-10-05T02:59:11.872Z,6.55
2022-10-05T03:01:47.956Z,6.53
2022-10-05T03:04:26.943Z,6.50
2022-10-05T03:07:05.792Z,6.51
2022-10-05T03:09:40.337Z,6.50
2022-10-05T03:12:19.515Z,6.51
2022-10-05T03:14:59.020Z,6.51
2022-10-05T03:17:35.271Z,6.50
2022-10-05T03:20:20.340Z,6.50
2022-10-05T03:22:51.957Z,6.49
2022-10-05T03:25:53.234Z,6.48
2022-10-05T03:28:27.954Z,6.47
2022-10-05T03:31:03.088Z,6.45
2022-10-05T03:33:43.752Z,6.44
2022-10-05T03:36:19.413Z,6.44
2022-10-05T03:38:55.264Z,6.43
2022-10-05T03:41:29.967Z,6.42
2022-10-05T03:44:27.179Z,6.41
2022-10-05T03:47:08.811Z,6.40
2022-10-05T03:49:51.140Z,6.37
2022-10-05T03:52:23.963Z,6.33
2022-10-05T03:54:57.294Z,6.31
2022-10-05T03:57:28.014Z,6.23
2022-10-05T04:00:01.991Z,6.14
2022-10-05T04:02:46.271Z,6.06
2022-10-05T04:05:19.917Z,6.05
2022-10-05T04:07:52.822Z,6.04
2022-10-05T04:10:24.747Z,5.99
2022-10-05T04:13:00.844Z,5.96
2022-10-05T04:15:33.358Z,5.99
2022-10-05T04:18:05.495Z,5.96
2022-10-05T04:20:43.173Z,5.92
2022-10-05T04:23:20.371Z,5.88
2022-10-05T04:25:53.479Z,5.86
2022-10-05T04:28:31.980Z,5.84
2022-10-05T04:31:01.483Z,5.84
2022-10-05T04:33:29.692Z,5.85
2022-10-05T04:36:13.957Z,5.86
2022-10-05T04:38:49.442Z,5.85
2022-10-05T04:41:44.500Z,5.86
2022-10-05T04:44:30.497Z,5.86
2022-10-05T04:47:13.649Z,5.87
2022-10-05T04:50:00.184Z,5.86
2022-10-05T04:52:42.895Z,5.84
2022-10-05T04:55:22.638Z,5.81
2022-10-05T04:57:56.290Z,5.83
2022-10-05T05:00:26.042Z,5.78
2022-10-05T05:03:19.819Z,5.76
2022-10-05T05:06:16.289Z,5.73
2022-10-05T05:09:20.880Z,5.73
2022-10-05T05:12:03.687Z,5.71
2022-10-05T05:14:56.791Z,5.73
2022-10-05T05:17:38.527Z,5.72
2022-10-05T05:20:19.320Z,5.71
2022-10-05T05:22:54.233Z,5.72
2022-10-05T05:25:40.811Z,5.71
2022-10-05T05:28:21.653Z,5.72
2022-10-05T05:30:57.558Z,5.74
2022-10-05T05:33:34.273Z,5.74
2022-10-05T05:36:35.739Z,5.74
2022-10-05T05:39:21.993Z,5.75
2022-10-05T05:42:01.940Z,5.75
2022-10-05T05:44:38.995Z,5.75
2022-10-05T05:47:19.225Z,5.76
2022-10-05T05:50:10.280Z,5.69
2022-10-05T05:52:43.969Z,5.62
2022-10-05T05:55:19.954Z,5.60
2022-10-05T05:57:55.567Z,5.60
2022-10-05T06:00:28.766Z,5.67
2022-10-05T06:03:05.765Z,5.70
2022-10-05T06:05:39.276Z,5.74
2022-10-05T06:08:16.653Z,5.80
2022-10-05T06:10:52.695Z,5.87
2022-10-05T06:13:26.056Z,5.89
2022-10-05T06:15:58.822Z,5.94
2022-10-05T06:18:26.844Z,5.98
2022-10-05T06:21:01.652Z,6.03
2022-10-05T06:23:35.553Z,6.09
2022-10-05T06:26:18.914Z,6.10
2022-10-05T06:28:53.595Z,6.15
2022-10-05T06:31:35.796Z,6.20
2022-10-05T06:34:17.101Z,6.26
2022-10-05T06:36:50.138Z,6.34
2022-10-05T06:39:53.358Z,6.42
2022-10-05T06:42:33.207Z,6.49
2022-10-05T06:45:22.844Z,6.59
2022-10-05T06:48:08.419Z,6.64
2022-10-05T06:51:23.223Z,6.75
2022-10-05T06:54:21.109Z,6.84
2022-10-05T06:56:56.852Z,6.93
2022-10-05T06:59:28.788Z,7.01
2022-10-05T07:02:07.091Z,7.12
2022-10-05T07:04:53.779Z,7.23
2022-10-05T07:07:30.236Z,7.33
2022-10-05T07:10:13.586Z,7.45
2022-10-05T07:12:50.763Z,7.57
2022-10-05T07:15:35.598Z,7.71
2022-10-05T07:18:23.490Z,7.82
2022-10-05T07:20:58.696Z,7.94
2022-10-05T07:23:36.808Z,8.05
2022-10-05T07:26:10.765Z,8.17
2022-10-05T07:28:48.115Z,8.30
2022-10-05T07:31:25.256Z,8.42
2022-10-05T07:34:03.886Z,8.53
2022-10-05T07:36:58.803Z,8.66
2022-10-05T07:39:58.556Z,8.83
2022-10-05T07:42:48.831Z,8.94
2022-10-05T07:45:29.343Z,9.08
2022-10-05T07:48:00.046Z,9.19
2022-10-05T07:50:36.749Z,9.31
2022-10-05T07:53:12.042Z,9.44
2022-10-05T07:55:45.148Z,9.60
2022-10-05T07:58:20.867Z,9.75
2022-10-05T08:01:14.325Z,9.93
2022-10-05T08:03:52.239Z,10.11
2022-10-05T08:06:35.827Z,10.31
2022-10-05T08:09:13.591Z,10.48
2022-10-05T08:11:49.201Z,10.67
2022-10-05T08:14:24.664Z,10.89
2022-10-05T08:16:55.076Z,11.08
2022-10-05T08:19:27.130Z,11.29
2022-10-05T08:22:01.391Z,11.49
2022-10-05T08:24:39.887Z,11.68
2022-10-05T08:27:15.712Z,11.90
2022-10-05T08:29:51.356Z,12.10
2022-10-05T08:32:24.389Z,12.32
2022-10-05T08:34:59.137Z,12.56
2022-10-05T08:37:32.566Z,12.73
2022-10-05T08:40:21.368Z,12.90
2022-10-05T08:43:08.751Z,13.11
2022-10-05T08:46:09.954Z,13.36
2022-10-05T08:49:08.755Z,13.55
2022-10-05T08:52:17.290Z,13.76
2022-10-05T08:55:03.580Z,14.07
2022-10-05T08:57:48.584Z,14.26
2022-10-05T09:00:19.815Z,14.53
2022-10-05T09:03:28.182Z,14.70
2022-10-05T09:06:24.948Z,14.96
2022-10-05T09:09:30.774Z,15.11
2022-10-05T09:12:20.946Z,15.30
2022-10-05T09:15:20.913Z,15.40
2022-10-05T09:18:16.015Z,15.63
2022-10-05T09:20:52.734Z,15.77
2022-10-05T09:23:37.052Z,15.91
2022-10-05T09:26:10.244Z,16.07
2022-10-05T09:28:58.419Z,16.16
2022-10-05T09:31:45.863Z,16.22
2022-10-05T09:34:44.693Z,16.45
2022-10-05T09:37:30.251Z,16.54
2022-10-05T09:40:44.586Z,16.77
2022-10-05T09:43:47.985Z,16.99
2022-10-05T09:46:44.129Z,17.00
2022-10-05T09:49:35.733Z,17.21
2022-10-05T09:52:19.148Z,17.42
2022-10-05T09:55:34.627Z,17.68
2022-10-05T09:58:39.815Z,17.96
2022-10-05T10:01:33.269Z,18.23
2022-10-05T10:04:24.627Z,18.53
2022-10-05T10:07:25.651Z,18.70
2022-10-05T10:10:21.729Z,18.90
2022-10-05T10:13:19.554Z,19.00
2022-10-05T10:16:05.543Z,19.33
2022-10-05T10:19:05.154Z,19.38
2022-10-05T10:21:57.573Z,19.60
2022-10-05T10:24:43.695Z,19.81
2022-10-05T10:27:27.388Z,20.18
2022-10-05T10:30:05.446Z,20.26
2022-10-05T10:32:54.024Z,20.34
2022-10-05T10:35:31.427Z,20.80
2022-10-05T10:38:24.488Z,21.15
2022-10-05T10:41:15.992Z,21.50
2022-10-05T10:44:26.693Z,21.84
2022-10-05T10:47:17.644Z,22.26
2022-10-05T10:50:12.137Z,22.73
2022-10-05T10:52:58.340Z,23.12
2022-10-05T10:55:39.345Z,23.24
2022-10-05T10:58:43.860Z,23.53
2022-10-05T11:01:30.543Z,23.87
2022-10-05T11:04:30.321Z,23.76
2022-10-05T11:07:28.099Z,23.82
2022-10-05T11:10:27.220Z,24.11
2022-10-05T11:13:21.317Z,24.14
2022-10-05T11:16:25.804Z,24.21
2022-10-05T11:19:08.060Z,24.12
2022-10-05T11:21:48.261Z,23.94
2022-10-05T11:24:55.091Z,23.79
2022-10-05T11:27:50.565Z,23.47
2022-10-05T11:30:36.886Z,23.05
2022-10-05T11:33:48.144Z,23.17
2022-10-05T11:37:01.911Z,23.48
2022-10-05T11:39:38.081Z,23.36
2022-10-05T11:42:40.383Z,23.61
2022-10-05T11:45:29.778Z,23.64
2022-10-05T11:48:29.911Z,23.53
2022-10-05T11:51:27.896Z,23.86
2022-10-05T11:54:07.881Z,24.13
2022-10-05T11:56:39.774Z,24.14
2022-10-05T11:59:14.007Z,24.05
2022-10-05T12:01:50.983Z,24.17
2022-10-05T12:04:26.087Z,24.26
2022-10-05T12:07:10.591Z,24.43
2022-10-05T12:10:05.443Z,24.54
2022-10-05T12:12:39.408Z,24.59
2022-10-05T12:15:18.498Z,24.64
2022-10-05T12:17:55.645Z,24.88
2022-10-05T12:20:31.359Z,24.93
2022-10-05T12:23:07.150Z,24.80
2022-10-05T12:25:40.032Z,25.02
2022-10-05T12:28:13.337Z,25.03
2022-10-05T12:31:03.474Z,24.91
2022-10-05T12:33:36.956Z,25.21
2022-10-05T12:36:09.135Z,25.13
2022-10-05T12:38:45.859Z,25.41
2022-10-05T12:41:22.105Z,25.62
2022-10-05T12:44:04.105Z,25.21
2022-10-05T12:46:40.627Z,24.94
2022-10-05T12:49:45.146Z,25.21
2022-10-05T12:52:29.089Z,25.13
2022-10-05T12:55:06.742Z,25.25
2022-10-05T12:57:43.119Z,25.36
2022-10-05T13:00:13.394Z,24.77
2022-10-05T13:02:47.009Z,25.06
2022-10-05T13:05:24.056Z,25.19
2022-10-05T13:08:07.655Z,25.31
2022-10-05T13:10:43.283Z,25.26
2022-10-05T13:13:28.460Z,25.19
2022-10-05T13:16:05.207Z,25.15
2022-10-05T13:18:44.231Z,25.23
2022-10-05T13:21:17.642Z,24.98
2022-10-05T13:23:57.418Z,25.01
2022-10-05T13:26:32.439Z,24.88
2022-10-05T13:29:09.312Z,24.81
2022-10-05T13:31:43.466Z,24.67
2022-10-05T13:34:24.584Z,24.57
2022-10-05T13:37:04.687Z,24.54
2022-10-05T13:39:48.667Z,24.46
2022-10-05T13:42:22.679Z,24.39
2022-10-05T13:44:54.710Z,24.35
2022-10-05T13:47:32.476Z,24.19
2022-10-05T13:50:04.817Z,24.13
2022-10-05T13:52:43.616Z,23.97
2022-10-05T13:55:21.878Z,23.86
2022-10-05T13:58:02.095Z,23.76
2022-10-05T14:00:31.392Z,23.58
2022-10-05T14:03:01.932Z,23.59
2022-10-05T14:05:31.642Z,23.60
2022-10-05T14:08:17.044Z,23.58
2022-10-05T14:10:46.868Z,23.56
2022-10-05T14:13:26.411Z,23.48
2022-10-05T14:16:04.409Z,23.43
2022-10-05T14:18:34.048Z,23.38
2022-10-05T14:21:03.458Z,23.35
2022-10-05T14:23:31.895Z,23.30
2022-10-05T14:26:04.148Z,23.27
2022-10-05T14:28:38.970Z,23.23
2022-10-05T14:31:14.695Z,23.17
2022-10-05T14:33:43.108Z,23.16
2022-10-05T14:36:16.114Z,23.14
2022-10-05T14:38:54.220Z,23.13
2022-10-05T14:41:25.340Z,23.09
2022-10-05T14:43:59.324Z,23.01
2022-10-05T14:46:29.728Z,23.01
2022-10-05T14:49:22.258Z,22.87
2022-10-05T14:51:51.362Z,22.86
2022-10-05T14:54:42.107Z,22.89
2022-10-05T14:57:19.456Z,22.88
2022-10-05T15:00:04.101Z,22.92
2022-10-05T15:03:04.388Z,22.87
2022-10-05T15:05:36.397Z,22.88
2022-10-05T15:08:19.056Z,22.75
2022-10-05T15:10:53.267Z,22.64
2022-10-05T15:13:24.797Z,22.51
2022-10-05T15:15:57.452Z,22.37
2022-10-05T15:18:34.796Z,22.21
2022-10-05T15:21:24.039Z,22.06
2022-10-05T15:23:57.303Z,21.92
2022-10-05T15:26:36.378Z,21.74
2022-10-05T15:29:11.200Z,21.68
2022-10-05T15:31:46.623Z,21.56
2022-10-05T15:34:20.539Z,21.43
2022-10-05T15:36:53.794Z,21.32
2022-10-05T15:39:30.045Z,21.22
2022-10-05T15:42:01.904Z,21.05
2022-10-05T15:44:46.853Z,20.97
2022-10-05T15:47:21.894Z,20.80
2022-10-05T15:50:03.196Z,20.60
2022-10-05T15:52:37.034Z,20.49
2022-10-05T15:55:35.125Z,20.37
2022-10-05T15:58:41.094Z,20.23
2022-10-05T16:01:12.508Z,20.08
2022-10-05T16:04:03.264Z,19.92
2022-10-05T16:06:56.390Z,19.79
2022-10-05T16:09:36.641Z,19.64
2022-10-05T16:12:15.135Z,19.47
2022-10-05T16:14:54.997Z,19.32
2022-10-05T16:17:36.131Z,19.15
2022-10-05T16:20:21.140Z,18.95
2022-10-05T16:22:59.617Z,18.75
2022-10-05T16:25:40.581Z,18.57
2022-10-05T16:28:18.722Z,18.39
2022-10-05T16:30:58.722Z,18.26
2022-10-05T16:33:45.966Z,18.07
2022-10-05T16:36:24.032Z,17.94
2022-10-05T16:39:00.571Z,17.88
2022-10-05T16:41:34.847Z,17.80
2022-10-05T16:44:12.135Z,17.68
2022-10-05T16:46:46.970Z,17.57
2022-10-05T16:49:25.591Z,17.45
2022-10-05T16:51:59.001Z,17.33
2022-10-05T16:54:31.509Z,17.19
2022-10-05T16:57:05.407Z,17.02
2022-10-05T16:59:58.200Z,16.91
2022-10-05T17:02:41.268Z,16.79
2022-10-05T17:05:27.077Z,16.57
2022-10-05T17:08:33.376Z,16.48
2022-10-05T17:11:15.987Z,16.32
2022-10-05T17:14:10.912Z,16.15
2022-10-05T17:16:48.881Z,15.98
2022-10-05T17:19:32.830Z,15.83
2022-10-05T17:22:03.098Z,15.74
2022-10-05T17:24:47.524Z,15.72
2022-10-05T17:27:24.576Z,15.60
2022-10-05T17:29:53.688Z,15.48
2022-10-05T17:32:37.180Z,15.38
2022-10-05T17:35:18.697Z,15.29
2022-10-05T17:38:07.359Z,15.25
2022-10-05T17:40:39.834Z,15.19
2022-10-05T17:43:25.156Z,15.08
2022-10-05T17:46:00.395Z,15.09
2022-10-05T17:49:14.884Z,14.96
2022-10-05T17:52:17.610Z,15.01
2022-10-05T17:55:30.506Z,15.00
2022-10-05T17:58:02.021Z,14.98
2022-10-05T18:00:42.443Z,14.95
2022-10-05T18:03:49.910Z,14.94
2022-10-05T18:06:40.351Z,14.91
2022-10-05T18:09:51.075Z,14.79
2022-10-05T18:12:40.775Z,14.66
2022-10-05T18:15:48.595Z,14.59
2022-10-05T18:18:58.520Z,14.50
2022-10-05T18:21:38.501Z,14.39
2022-10-05T18:24:36.803Z,14.26
2022-10-05T18:27:17.060Z,14.20
2022-10-05T18:30:05.250Z,14.12
2022-10-05T18:32:50.763Z,14.02
2022-10-05T18:35:26.471Z,13.93
2022-10-05T18:38:07.795Z,13.93
2022-10-05T18:40:48.342Z,13.85
2022-10-05T18:43:28.992Z,13.74
2022-10-05T18:46:17.789Z,13.71
2022-10-05T18:48:58.019Z,13.72
2022-10-05T18:51:33.551Z,13.74
2022-10-05T18:54:13.504Z,13.69
2022-10-05T18:56:46.499Z,13.75
2022-10-05T18:59:32.068Z,13.69
2022-10-05T19:02:11.443Z,13.60
2022-10-05T19:04:53.502Z,13.61
2022-10-05T19:07:34.017Z,13.61
2022-10-05T19:10:14.805Z,13.53
2022-10-05T19:12:53.248Z,13.46
2022-10-05T19:15:28.587Z,13.50
2022-10-05T19:18:15.528Z,13.52
2022-10-05T19:20:53.117Z,13.54
2022-10-05T19:23:45.857Z,13.53
2022-10-05T19:26:18.395Z,13.55
2022-10-05T19:29:00.371Z,13.55
2022-10-05T19:31:36.961Z,13.50
2022-10-05T19:34:16.690Z,13.44
2022-10-05T19:36:59.174Z,13.44
2022-10-05T19:39:37.834Z,13.37
2022-10-05T19:42:25.672Z,13.29
2022-10-05T19:45:04.774Z,13.22
2022-10-05T19:47:47.344Z,13.12
2022-10-05T19:50:29.725Z,13.02
2022-10-05T19:53:12.576Z,12.95
2022-10-05T19:55:43.587Z,12.89
2022-10-05T19:58:20.696Z,12.75
2022-10-05T20:00:59.926Z,12.67
2022-10-05T20:03:29.387Z,12.59
2022-10-05T20:05:58.653Z,12.56
2022-10-05T20:08:31.843Z,12.50
2022-10-05T20:11:08.236Z,12.47
2022-10-05T20:13:36.600Z,12.36
2022-10-05T20:16:26.997Z,12.27
2022-10-05T20:19:12.210Z,12.17
2022-10-05T20:21:43.706Z,12.16
2022-10-05T20:24:14.420Z,12.22
2022-10-05T20:27:04.214Z,12.24
2022-10-05T20:29:36.441Z,12.23
2022-10-05T20:32:08.191Z,12.12
2022-10-05T20:34:37.919Z,12.05
2022-10-05T20:37:05.598Z,12.04
2022-10-05T20:39:34.685Z,11.93
2022-10-05T20:42:02.560Z,11.88
2022-10-05T20:44:30.552Z,11.92
2022-10-05T20:47:00.983Z,11.90
2022-10-05T20:49:30.892Z,11.80
2022-10-05T20:51:59.606Z,11.77
2022-10-05T20:54:28.164Z,11.65
2022-10-05T20:56:57.522Z,11.58
2022-10-05T20:59:26.641Z,11.55
2022-10-05T21:01:54.515Z,11.55
2022-10-05T21:04:23.751Z,11.51
2022-10-05T21:06:52.775Z,11.54
2022-10-05T21:09:21.555Z,11.55
2022-10-05T21:11:52.793Z,11.49
2022-10-05T21:14:22.830Z,11.48
2022-10-05T21:16:50.863Z,11.60
2022-10-05T21:19:18.623Z,11.64
2022-10-05T21:21:47.023Z,11.66
2022-10-05T21:24:16.203Z,11.66
2022-10-05T21:26:44.665Z,11.63
2022-10-05T21:29:13.240Z,11.62
2022-10-05T21:31:42.650Z,11.63
2022-10-05T21:34:10.428Z,11.63
2022-10-05T21:36:38.086Z,11.59
2022-10-05T21:39:05.752Z,11.59
2022-10-05T21:41:33.403Z,11.56
2022-10-05T21:44:01.227Z,11.49
2022-10-05T21:46:30.222Z,11.46
2022-10-05T21:48:59.242Z,11.40
2022-10-05T21:51:28.291Z,11.36
2022-10-05T21:53:59.159Z,11.33
2022-10-05T21:56:30.122Z,11.34
2022-10-05T21:58:58.387Z,11.26
2022-10-05T22:01:26.129Z,11.24
2022-10-05T22:03:53.873Z,11.24
2022-10-05T22:06:22.866Z,11.28
2022-10-05T22:08:50.567Z,11.30
2022-10-05T22:11:18.794Z,11.32
2022-10-05T22:13:48.512Z,11.35
2022-10-05T22:16:18.201Z,11.36
2022-10-05T22:18:46.506Z,11.34
2022-10-05T22:21:14.738Z,11.34
2022-10-05T22:23:46.320Z,11.33
2022-10-05T22:26:17.115Z,11.28
2022-10-05T22:28:46.672Z,11.19
2022-10-05T22:31:15.640Z,11.16
2022-10-05T22:33:43.351Z,11.16
2022-10-05T22:36:11.183Z,11.14
2022-10-05T22:38:38.855Z,11.15
2022-10-05T22:41:12.302Z,11.16
2022-10-05T22:43:40.563Z,11.12
2022-10-05T22:46:10.136Z,11.11
2022-10-05T22:48:38.027Z,11.13
2022-10-05T22:51:06.557Z,11.10
2022-10-05T22:53:34.560Z,11.09
2022-10-05T22:56:06.966Z,11.07
2022-10-05T22:58:36.515Z,11.08
2022-10-05T23:01:06.470Z,11.07
2022-10-05T23:03:34.884Z,11.07
2022-10-05T23:06:04.586Z,11.07
2022-10-05T23:08:33.023Z,11.05
2022-10-05T23:11:04.887Z,11.02
2022-10-05T23:13:32.901Z,10.99
2022-10-05T23:16:08.251Z,10.93
2022-10-05T23:18:36.282Z,10.91
2022-10-05T23:21:05.615Z,10.93
2022-10-05T23:23:33.275Z,10.90
2022-10-05T23:26:01.528Z,10.88
2022-10-05T23:28:30.127Z,10.83
2022-10-05T23:31:02.002Z,10.79
2022-10-05T23:33:31.414Z,10.77
2022-10-05T23:36:00.117Z,10.75
2022-10-05T23:38:28.698Z,10.76
2022-10-05T23:40:58.522Z,10.74
2022-10-05T23:43:26.712Z,10.74
2022-10-05T23:45:54.533Z,10.78
2022-10-05T23:48:22.384Z,10.80
2022-10-05T23:50:51.555Z,10.83
2022-10-05T23:53:20.188Z,10.84
2022-10-05T23:55:51.231Z,10.88
2022-10-05T23:58:19.306Z,10.92
